Salemburg, North Carolina
Current Conditions -  °F | °C
As of 4:55 PM on Friday 31 Oct 2014 (Local Time) from KCTZ Reporting Station
Clear Clear  
Wind Chill: 63°   Ceiling: Unl
Heat Index: 63°   Visibility: 10mi
Dew Point: 46°   Wind: 5mph
Humidity: 54%   Direction: 40°NE
Pressure: 29.8"   Gusts: NA
Location:  35.02°N, 78.5°W
Report Text: KCTZ 312055Z AUTO 04004KT 10SM CLR 17/08 A2980 RMK AO2 T01710078
Loading
Personal Weather Stations






























Interactive Weather Map
Tropical Storm Tracking
New forecast layout! Learn more

10-Day Weather Forecast

Advertisements
Track Severe Weather on mobile